createdAt,value
2017-11-22T00:53:22.753Z,10.50
2017-11-22T00:56:17.233Z,10.50
2017-11-22T00:59:09.424Z,10.50
2017-11-22T01:08:38.565Z,10.60
2017-11-22T01:42:12.319Z,10.60
2017-11-22T01:56:20.008Z,10.80
2017-11-22T02:01:42.703Z,10.80
2017-11-22T02:04:39.628Z,10.90
2017-11-22T02:07:30.825Z,10.90
2017-11-22T02:13:15.978Z,10.90
2017-11-22T02:44:43.211Z,10.90
2017-11-22T02:55:56.013Z,10.90
2017-11-22T03:12:02.092Z,10.70
2017-11-22T05:49:56.325Z,10.70
2017-11-22T05:52:30.275Z,10.80
2017-11-22T05:54:58.098Z,10.80
2017-11-22T05:57:25.799Z,10.80
2017-11-22T05:59:58.967Z,10.90
2017-11-22T06:02:42.892Z,10.90
2017-11-22T06:05:10.593Z,10.90
2017-11-22T06:10:25.248Z,10.90
2017-11-22T06:12:52.961Z,10.90
2017-11-22T06:15:20.835Z,10.90
2017-11-22T06:17:57.329Z,10.90
2017-11-22T06:20:35.455Z,10.90
2017-11-22T06:23:03.114Z,10.90
2017-11-22T06:25:30.777Z,10.80
2017-11-22T06:27:59.208Z,10.70
2017-11-22T06:35:03.011Z,10.70
2017-11-22T06:37:44.179Z,10.70
2017-11-22T06:40:11.889Z,10.60
2017-11-22T06:42:54.481Z,10.60
2017-11-22T06:45:42.852Z,10.60
2017-11-22T07:09:46.385Z,10.50
2017-11-22T13:45:10.171Z,12.20
2017-11-22T13:50:28.140Z,12.10
2017-11-22T13:53:14.219Z,12.10
2017-11-22T13:55:41.969Z,12.00
2017-11-22T13:58:33.392Z,12.00
2017-11-22T14:01:04.637Z,11.90
2017-11-22T14:03:40.329Z,11.90
2017-11-22T14:11:52.409Z,11.80
2017-11-22T14:14:31.983Z,11.70
2017-11-22T14:17:14.832Z,11.70
2017-11-22T14:19:42.515Z,11.70
2017-11-22T14:24:53.386Z,11.60
2017-11-22T14:33:38.451Z,11.50
2017-11-22T14:36:22.722Z,11.40
2017-11-22T14:38:51.499Z,11.30
2017-11-22T14:44:10.466Z,11.30
2017-11-22T14:46:55.545Z,11.20
2017-11-22T14:49:23.278Z,11.20
2017-11-22T14:52:06.842Z,11.20
2017-11-22T14:54:34.893Z,11.20
2017-11-22T14:57:02.563Z,11.10
2017-11-22T14:59:43.868Z,11.10
2017-11-22T15:02:11.543Z,11.10
2017-11-22T15:04:39.199Z,11.00
2017-11-22T15:07:17.184Z,11.00
2017-11-22T15:09:44.833Z,10.90
2017-11-22T15:12:20.565Z,10.90
2017-11-22T15:14:48.116Z,10.90
2017-11-22T15:17:15.796Z,10.90
2017-11-22T15:19:43.834Z,10.90
2017-11-22T15:22:22.178Z,10.80
2017-11-22T15:24:50.549Z,10.70
2017-11-22T15:27:18.089Z,10.70
2017-11-22T15:29:50.053Z,10.70
2017-11-22T15:32:17.767Z,10.60
2017-11-22T15:34:45.348Z,10.60
2017-11-22T15:37:12.937Z,10.60
2017-11-22T15:39:54.541Z,10.60
2017-11-22T15:42:22.122Z,10.50
2017-11-22T15:44:50.522Z,10.50
2017-11-22T15:47:28.110Z,10.50
2017-11-22T15:49:55.794Z,10.50
2017-11-22T15:52:23.384Z,10.40
2017-11-22T15:55:05.050Z,10.40
2017-11-22T15:57:32.620Z,10.40
2017-11-22T16:00:00.196Z,10.30
2017-11-22T16:02:41.752Z,10.30
2017-11-22T16:05:09.309Z,10.30
2017-11-22T16:07:36.846Z,10.30
2017-11-22T16:10:22.737Z,10.30
2017-11-22T16:12:50.337Z,10.30
2017-11-22T16:15:17.937Z,10.30
2017-11-22T16:17:57.215Z,10.30
2017-11-22T16:20:24.877Z,10.30
2017-11-22T16:22:52.520Z,10.30
2017-11-22T16:25:34.632Z,10.30
2017-11-22T16:28:02.410Z,10.30
2017-11-22T16:30:30.112Z,10.40
2017-11-22T16:33:10.479Z,10.30
2017-11-22T16:35:38.056Z,10.30
2017-11-22T16:38:05.798Z,10.30
2017-11-22T16:40:50.477Z,10.30
2017-11-22T16:43:18.333Z,10.30
2017-11-22T16:48:30.478Z,10.30
2017-11-22T16:50:58.680Z,10.30
2017-11-22T16:53:40.833Z,10.30
2017-11-22T16:56:08.536Z,10.30
2017-11-22T16:58:36.190Z,10.30
2017-11-22T17:01:25.182Z,10.40
2017-11-22T17:03:53.647Z,10.40
2017-11-22T17:09:24.379Z,10.40
2017-11-22T17:11:52.349Z,10.40
2017-11-22T17:14:20.070Z,10.30
2017-11-22T17:17:01.957Z,10.30
2017-11-22T17:19:29.635Z,10.30
2017-11-22T17:22:21.353Z,10.30
2017-11-22T17:27:28.856Z,10.30
2017-11-22T17:35:34.244Z,10.40
2017-11-22T17:38:13.696Z,10.40
2017-11-22T17:45:48.688Z,10.40
2017-11-22T17:52:00.523Z,10.40
